sensor_id;sensor_type;location;lat;lon;timestamp;temperature;humidity
26342;DHT22;14054;50.108;8.640;2023-08-06T00:01:38;16.10;99.90
26342;DHT22;14054;50.108;8.640;2023-08-06T00:04:03;16.10;99.90
26342;DHT22;14054;50.108;8.640;2023-08-06T00:06:29;16.00;99.90
26342;DHT22;14054;50.108;8.640;2023-08-06T00:08:54;16.00;99.90
26342;DHT22;14054;50.108;8.640;2023-08-06T00:11:20;16.00;99.90
26342;DHT22;14054;50.108;8.640;2023-08-06T00:13:46;16.00;99.90
26342;DHT22;14054;50.108;8.640;2023-08-06T00:16:12;16.00;99.90
26342;DHT22;14054;50.108;8.640;2023-08-06T00:18:39;16.00;99.90
26342;DHT22;14054;50.108;8.640;2023-08-06T00:21:04;16.00;99.90
26342;DHT22;14054;50.108;8.640;2023-08-06T00:23:30;16.00;99.90
26342;DHT22;14054;50.108;8.640;2023-08-06T00:25:55;16.00;99.90
26342;DHT22;14054;50.108;8.640;2023-08-06T00:28:21;16.00;99.90
26342;DHT22;14054;50.108;8.640;2023-08-06T00:30:51;16.10;99.90
26342;DHT22;14054;50.108;8.640;2023-08-06T00:33:17;16.10;99.90
26342;DHT22;14054;50.108;8.640;2023-08-06T00:35:42;16.10;99.90
26342;DHT22;14054;50.108;8.640;2023-08-06T00:38:08;16.10;99.90
26342;DHT22;14054;50.108;8.640;2023-08-06T00:40:33;16.10;99.90
26342;DHT22;14054;50.108;8.640;2023-08-06T00:42:59;16.00;99.90
26342;DHT22;14054;50.108;8.640;2023-08-06T00:45:25;16.10;99.90
26342;DHT22;14054;50.108;8.640;2023-08-06T00:47:50;16.10;99.90
26342;DHT22;14054;50.108;8.640;2023-08-06T00:50:16;16.10;99.90
26342;DHT22;14054;50.108;8.640;2023-08-06T00:52:42;16.10;99.90
26342;DHT22;14054;50.108;8.640;2023-08-06T00:55:08;16.00;99.90
26342;DHT22;14054;50.108;8.640;2023-08-06T00:57:35;16.10;99.90
26342;DHT22;14054;50.108;8.640;2023-08-06T01:00:00;16.10;99.90
26342;DHT22;14054;50.108;8.640;2023-08-06T01:02:26;16.10;99.90
26342;DHT22;14054;50.108;8.640;2023-08-06T01:04:51;16.10;99.90
26342;DHT22;14054;50.108;8.640;2023-08-06T01:15:32;16.00;99.90
26342;DHT22;14054;50.108;8.640;2023-08-06T01:17:58;16.00;99.90
26342;DHT22;14054;50.108;8.640;2023-08-06T01:20:29;16.00;99.90
26342;DHT22;14054;50.108;8.640;2023-08-06T01:22:54;16.00;99.90
26342;DHT22;14054;50.108;8.640;2023-08-06T01:25:19;16.00;99.90
26342;DHT22;14054;50.108;8.640;2023-08-06T01:27:49;16.00;99.90
26342;DHT22;14054;50.108;8.640;2023-08-06T01:30:25;16.00;99.90
26342;DHT22;14054;50.108;8.640;2023-08-06T01:32:55;16.00;99.90
26342;DHT22;14054;50.108;8.640;2023-08-06T01:35:25;16.00;99.90
26342;DHT22;14054;50.108;8.640;2023-08-06T01:37:52;16.00;99.90
26342;DHT22;14054;50.108;8.640;2023-08-06T01:40:17;16.00;99.90
26342;DHT22;14054;50.108;8.640;2023-08-06T01:42:43;16.00;99.90
26342;DHT22;14054;50.108;8.640;2023-08-06T01:45:09;16.00;99.90
26342;DHT22;14054;50.108;8.640;2023-08-06T01:47:35;16.00;99.90
26342;DHT22;14054;50.108;8.640;2023-08-06T01:50:01;16.00;99.90
26342;DHT22;14054;50.108;8.640;2023-08-06T01:52:27;16.10;99.90
26342;DHT22;14054;50.108;8.640;2023-08-06T01:54:53;16.10;99.90
26342;DHT22;14054;50.108;8.640;2023-08-06T01:57:18;16.10;99.90
26342;DHT22;14054;50.108;8.640;2023-08-06T01:59:44;16.10;99.90
26342;DHT22;14054;50.108;8.640;2023-08-06T02:02:09;16.10;99.90
26342;DHT22;14054;50.108;8.640;2023-08-06T02:04:35;16.10;99.90
26342;DHT22;14054;50.108;8.640;2023-08-06T02:07:00;16.10;99.90
26342;DHT22;14054;50.108;8.640;2023-08-06T02:09:29;16.00;99.90
26342;DHT22;14054;50.108;8.640;2023-08-06T02:11:54;16.00;99.90
26342;DHT22;14054;50.108;8.640;2023-08-06T02:14:20;16.00;99.90
26342;DHT22;14054;50.108;8.640;2023-08-06T02:16:45;16.00;99.90
26342;DHT22;14054;50.108;8.640;2023-08-06T02:19:11;15.90;99.90
26342;DHT22;14054;50.108;8.640;2023-08-06T02:21:36;16.00;99.90
26342;DHT22;14054;50.108;8.640;2023-08-06T02:24:02;15.90;99.90
26342;DHT22;14054;50.108;8.640;2023-08-06T02:26:28;15.90;99.90
26342;DHT22;14054;50.108;8.640;2023-08-06T02:28:53;15.80;99.90
26342;DHT22;14054;50.108;8.640;2023-08-06T02:31:18;15.80;99.90
26342;DHT22;14054;50.108;8.640;2023-08-06T02:33:44;15.80;99.90
26342;DHT22;14054;50.108;8.640;2023-08-06T02:36:10;15.90;99.90
26342;DHT22;14054;50.108;8.640;2023-08-06T02:38:35;15.90;99.90
26342;DHT22;14054;50.108;8.640;2023-08-06T02:41:04;15.90;99.90
26342;DHT22;14054;50.108;8.640;2023-08-06T02:43:30;16.00;99.90
26342;DHT22;14054;50.108;8.640;2023-08-06T02:45:59;15.90;99.90
26342;DHT22;14054;50.108;8.640;2023-08-06T02:48:25;15.90;99.90
26342;DHT22;14054;50.108;8.640;2023-08-06T02:50:50;15.90;99.90
26342;DHT22;14054;50.108;8.640;2023-08-06T02:53:16;16.00;99.90
26342;DHT22;14054;50.108;8.640;2023-08-06T02:55:48;16.00;99.90
26342;DHT22;14054;50.108;8.640;2023-08-06T02:58:14;16.00;99.90
26342;DHT22;14054;50.108;8.640;2023-08-06T03:00:40;16.00;99.90
26342;DHT22;14054;50.108;8.640;2023-08-06T03:03:05;16.00;99.90
26342;DHT22;14054;50.108;8.640;2023-08-06T03:05:31;16.00;99.90
26342;DHT22;14054;50.108;8.640;2023-08-06T03:07:56;16.00;99.90
26342;DHT22;14054;50.108;8.640;2023-08-06T03:10:22;16.00;99.90
26342;DHT22;14054;50.108;8.640;2023-08-06T03:12:47;15.90;99.90
26342;DHT22;14054;50.108;8.640;2023-08-06T03:15:13;15.90;99.90
26342;DHT22;14054;50.108;8.640;2023-08-06T03:17:38;15.90;99.90
26342;DHT22;14054;50.108;8.640;2023-08-06T03:20:04;16.00;99.90
26342;DHT22;14054;50.108;8.640;2023-08-06T03:22:30;16.00;99.90
26342;DHT22;14054;50.108;8.640;2023-08-06T03:24:55;16.00;99.90
26342;DHT22;14054;50.108;8.640;2023-08-06T03:27:21;16.00;99.90
26342;DHT22;14054;50.108;8.640;2023-08-06T03:29:49;15.90;99.90
26342;DHT22;14054;50.108;8.640;2023-08-06T03:32:15;16.00;99.90
26342;DHT22;14054;50.108;8.640;2023-08-06T03:34:40;15.90;99.90
26342;DHT22;14054;50.108;8.640;2023-08-06T03:37:06;15.90;99.90
26342;DHT22;14054;50.108;8.640;2023-08-06T03:39:31;15.90;99.90
26342;DHT22;14054;50.108;8.640;2023-08-06T03:41:57;16.00;99.90
26342;DHT22;14054;50.108;8.640;2023-08-06T03:44:22;15.90;99.90
26342;DHT22;14054;50.108;8.640;2023-08-06T03:46:48;15.90;99.90
26342;DHT22;14054;50.108;8.640;2023-08-06T03:49:13;15.90;99.90
26342;DHT22;14054;50.108;8.640;2023-08-06T03:51:39;15.90;99.90
26342;DHT22;14054;50.108;8.640;2023-08-06T03:54:04;15.90;99.90
26342;DHT22;14054;50.108;8.640;2023-08-06T03:56:30;15.90;99.90
26342;DHT22;14054;50.108;8.640;2023-08-06T03:58:55;15.90;99.90
26342;DHT22;14054;50.108;8.640;2023-08-06T04:01:21;16.00;99.90
26342;DHT22;14054;50.108;8.640;2023-08-06T04:03:46;16.00;99.90
26342;DHT22;14054;50.108;8.640;2023-08-06T04:06:12;16.00;99.90
26342;DHT22;14054;50.108;8.640;2023-08-06T04:08:37;16.00;99.90
26342;DHT22;14054;50.108;8.640;2023-08-06T04:11:03;16.00;99.90
26342;DHT22;14054;50.108;8.640;2023-08-06T04:13:29;16.10;99.90
26342;DHT22;14054;50.108;8.640;2023-08-06T04:15:54;16.00;99.90
26342;DHT22;14054;50.108;8.640;2023-08-06T04:18:20;16.00;99.90
26342;DHT22;14054;50.108;8.640;2023-08-06T04:20:47;16.00;99.90
26342;DHT22;14054;50.108;8.640;2023-08-06T04:23:14;16.00;99.90
26342;DHT22;14054;50.108;8.640;2023-08-06T04:25:40;16.00;99.90
26342;DHT22;14054;50.108;8.640;2023-08-06T04:28:06;16.00;99.90
26342;DHT22;14054;50.108;8.640;2023-08-06T04:30:31;16.00;99.90
26342;DHT22;14054;50.108;8.640;2023-08-06T04:32:57;16.00;99.90
26342;DHT22;14054;50.108;8.640;2023-08-06T04:35:23;16.00;99.90
26342;DHT22;14054;50.108;8.640;2023-08-06T04:37:49;16.00;99.90
26342;DHT22;14054;50.108;8.640;2023-08-06T04:40:14;16.00;99.90
26342;DHT22;14054;50.108;8.640;2023-08-06T04:42:40;16.00;99.90
26342;DHT22;14054;50.108;8.640;2023-08-06T04:45:06;16.00;99.90
26342;DHT22;14054;50.108;8.640;2023-08-06T04:47:31;16.00;99.90
26342;DHT22;14054;50.108;8.640;2023-08-06T04:49:57;16.00;99.90
26342;DHT22;14054;50.108;8.640;2023-08-06T04:52:22;16.00;99.90
26342;DHT22;14054;50.108;8.640;2023-08-06T04:54:48;16.00;99.90
26342;DHT22;14054;50.108;8.640;2023-08-06T04:57:13;16.00;99.90
26342;DHT22;14054;50.108;8.640;2023-08-06T04:59:39;15.90;99.90
26342;DHT22;14054;50.108;8.640;2023-08-06T05:02:04;15.80;99.90
26342;DHT22;14054;50.108;8.640;2023-08-06T05:04:30;15.80;99.90
26342;DHT22;14054;50.108;8.640;2023-08-06T05:06:56;15.70;99.90
26342;DHT22;14054;50.108;8.640;2023-08-06T05:09:21;15.60;99.90
26342;DHT22;14054;50.108;8.640;2023-08-06T05:11:47;15.60;99.90
26342;DHT22;14054;50.108;8.640;2023-08-06T05:14:13;15.60;99.90
26342;DHT22;14054;50.108;8.640;2023-08-06T05:16:39;15.50;99.90
26342;DHT22;14054;50.108;8.640;2023-08-06T05:19:04;15.50;99.90
26342;DHT22;14054;50.108;8.640;2023-08-06T05:21:29;15.40;99.90
26342;DHT22;14054;50.108;8.640;2023-08-06T05:23:55;15.40;99.90
26342;DHT22;14054;50.108;8.640;2023-08-06T05:26:21;15.50;99.90
26342;DHT22;14054;50.108;8.640;2023-08-06T05:28:46;15.50;99.90
26342;DHT22;14054;50.108;8.640;2023-08-06T05:31:12;15.50;99.90
26342;DHT22;14054;50.108;8.640;2023-08-06T05:33:37;15.50;99.90
26342;DHT22;14054;50.108;8.640;2023-08-06T05:36:03;15.50;99.90
26342;DHT22;14054;50.108;8.640;2023-08-06T05:38:30;15.40;99.90
26342;DHT22;14054;50.108;8.640;2023-08-06T05:40:55;15.40;99.90
26342;DHT22;14054;50.108;8.640;2023-08-06T05:43:21;15.30;99.90
26342;DHT22;14054;50.108;8.640;2023-08-06T05:45:49;15.30;99.90
26342;DHT22;14054;50.108;8.640;2023-08-06T05:48:15;15.40;99.90
26342;DHT22;14054;50.108;8.640;2023-08-06T05:50:40;15.40;99.90
26342;DHT22;14054;50.108;8.640;2023-08-06T05:53:06;15.50;99.90
26342;DHT22;14054;50.108;8.640;2023-08-06T05:55:31;15.40;99.90
26342;DHT22;14054;50.108;8.640;2023-08-06T05:57:58;15.50;99.90
26342;DHT22;14054;50.108;8.640;2023-08-06T06:00:23;15.40;99.90
26342;DHT22;14054;50.108;8.640;2023-08-06T06:02:49;15.50;99.90
26342;DHT22;14054;50.108;8.640;2023-08-06T06:05:14;15.50;99.90
26342;DHT22;14054;50.108;8.640;2023-08-06T06:07:40;15.60;99.90
26342;DHT22;14054;50.108;8.640;2023-08-06T06:10:06;15.60;99.90
26342;DHT22;14054;50.108;8.640;2023-08-06T06:12:32;15.60;99.90
26342;DHT22;14054;50.108;8.640;2023-08-06T06:14:59;15.60;99.90
26342;DHT22;14054;50.108;8.640;2023-08-06T06:17:26;15.60;99.90
26342;DHT22;14054;50.108;8.640;2023-08-06T06:19:52;15.60;99.90
26342;DHT22;14054;50.108;8.640;2023-08-06T06:22:17;15.60;99.90
26342;DHT22;14054;50.108;8.640;2023-08-06T06:24:43;15.70;99.90
26342;DHT22;14054;50.108;8.640;2023-08-06T06:27:08;15.60;99.90
26342;DHT22;14054;50.108;8.640;2023-08-06T06:29:34;15.70;99.90
26342;DHT22;14054;50.108;8.640;2023-08-06T06:32:00;15.70;99.90
26342;DHT22;14054;50.108;8.640;2023-08-06T06:34:26;15.70;99.90
26342;DHT22;14054;50.108;8.640;2023-08-06T06:36:51;15.70;99.90
26342;DHT22;14054;50.108;8.640;2023-08-06T06:39:17;15.70;99.90
26342;DHT22;14054;50.108;8.640;2023-08-06T06:41:43;15.70;99.90
26342;DHT22;14054;50.108;8.640;2023-08-06T06:44:09;15.70;99.90
26342;DHT22;14054;50.108;8.640;2023-08-06T06:46:35;15.70;99.90
26342;DHT22;14054;50.108;8.640;2023-08-06T06:49:00;15.70;99.90
26342;DHT22;14054;50.108;8.640;2023-08-06T06:51:26;15.70;99.90
26342;DHT22;14054;50.108;8.640;2023-08-06T06:53:51;15.70;99.90
26342;DHT22;14054;50.108;8.640;2023-08-06T06:56:17;15.70;99.90
26342;DHT22;14054;50.108;8.640;2023-08-06T06:58:42;15.60;99.90
26342;DHT22;14054;50.108;8.640;2023-08-06T07:01:09;15.60;99.90
26342;DHT22;14054;50.108;8.640;2023-08-06T07:03:37;15.50;99.90
26342;DHT22;14054;50.108;8.640;2023-08-06T07:06:02;15.50;99.90
26342;DHT22;14054;50.108;8.640;2023-08-06T07:08:29;15.50;99.90
26342;DHT22;14054;50.108;8.640;2023-08-06T07:11:04;15.50;99.90
26342;DHT22;14054;50.108;8.640;2023-08-06T07:13:31;15.50;99.90
26342;DHT22;14054;50.108;8.640;2023-08-06T07:15:57;15.50;99.90
26342;DHT22;14054;50.108;8.640;2023-08-06T07:18:23;15.50;99.90
26342;DHT22;14054;50.108;8.640;2023-08-06T07:20:53;15.40;99.90
26342;DHT22;14054;50.108;8.640;2023-08-06T07:23:24;15.40;99.90
26342;DHT22;14054;50.108;8.640;2023-08-06T07:25:50;15.30;99.90
26342;DHT22;14054;50.108;8.640;2023-08-06T07:28:16;15.40;99.90
26342;DHT22;14054;50.108;8.640;2023-08-06T07:30:43;15.30;99.90
26342;DHT22;14054;50.108;8.640;2023-08-06T07:33:09;15.30;99.90
26342;DHT22;14054;50.108;8.640;2023-08-06T07:35:35;15.30;99.90
26342;DHT22;14054;50.108;8.640;2023-08-06T07:38:00;15.30;99.90
26342;DHT22;14054;50.108;8.640;2023-08-06T07:40:27;15.30;99.90
26342;DHT22;14054;50.108;8.640;2023-08-06T07:42:53;15.30;99.90
26342;DHT22;14054;50.108;8.640;2023-08-06T07:45:18;15.40;99.90
26342;DHT22;14054;50.108;8.640;2023-08-06T07:47:44;15.40;99.90
26342;DHT22;14054;50.108;8.640;2023-08-06T07:50:09;15.40;99.90
26342;DHT22;14054;50.108;8.640;2023-08-06T07:52:35;15.40;99.90
26342;DHT22;14054;50.108;8.640;2023-08-06T07:55:01;15.50;99.90
26342;DHT22;14054;50.108;8.640;2023-08-06T07:57:30;15.50;99.90
26342;DHT22;14054;50.108;8.640;2023-08-06T07:59:56;15.50;99.90
26342;DHT22;14054;50.108;8.640;2023-08-06T08:02:21;15.50;99.90
26342;DHT22;14054;50.108;8.640;2023-08-06T08:04:47;15.60;99.90
26342;DHT22;14054;50.108;8.640;2023-08-06T08:07:12;15.60;99.90
26342;DHT22;14054;50.108;8.640;2023-08-06T08:09:38;15.50;99.90
26342;DHT22;14054;50.108;8.640;2023-08-06T08:12:04;15.60;99.90
26342;DHT22;14054;50.108;8.640;2023-08-06T08:14:29;15.70;99.90
26342;DHT22;14054;50.108;8.640;2023-08-06T08:17:01;15.80;99.90
26342;DHT22;14054;50.108;8.640;2023-08-06T08:19:27;16.00;99.90
26342;DHT22;14054;50.108;8.640;2023-08-06T08:21:53;16.00;99.90
26342;DHT22;14054;50.108;8.640;2023-08-06T08:24:20;16.20;99.90
26342;DHT22;14054;50.108;8.640;2023-08-06T08:26:45;16.40;99.90
26342;DHT22;14054;50.108;8.640;2023-08-06T08:29:11;16.50;99.90
26342;DHT22;14054;50.108;8.640;2023-08-06T08:31:36;16.90;99.90
26342;DHT22;14054;50.108;8.640;2023-08-06T08:34:05;17.00;99.90
26342;DHT22;14054;50.108;8.640;2023-08-06T08:36:31;17.10;99.90
26342;DHT22;14054;50.108;8.640;2023-08-06T08:38:57;17.10;99.90
26342;DHT22;14054;50.108;8.640;2023-08-06T08:41:22;17.10;99.90
26342;DHT22;14054;50.108;8.640;2023-08-06T08:43:50;17.10;99.90
26342;DHT22;14054;50.108;8.640;2023-08-06T08:46:18;17.10;99.90
26342;DHT22;14054;50.108;8.640;2023-08-06T08:48:43;17.30;99.90
26342;DHT22;14054;50.108;8.640;2023-08-06T08:51:10;17.30;99.90
26342;DHT22;14054;50.108;8.640;2023-08-06T08:53:37;17.50;99.90
26342;DHT22;14054;50.108;8.640;2023-08-06T08:56:05;17.60;99.90
26342;DHT22;14054;50.108;8.640;2023-08-06T08:58:31;17.70;99.90
26342;DHT22;14054;50.108;8.640;2023-08-06T09:00:56;17.90;99.90
26342;DHT22;14054;50.108;8.640;2023-08-06T09:03:23;17.90;99.90
26342;DHT22;14054;50.108;8.640;2023-08-06T09:05:52;17.80;99.90
26342;DHT22;14054;50.108;8.640;2023-08-06T09:08:19;17.70;99.90
26342;DHT22;14054;50.108;8.640;2023-08-06T09:10:48;17.60;99.90
26342;DHT22;14054;50.108;8.640;2023-08-06T09:13:14;17.50;99.90
26342;DHT22;14054;50.108;8.640;2023-08-06T09:15:39;17.50;99.90
26342;DHT22;14054;50.108;8.640;2023-08-06T09:18:11;17.90;99.90
26342;DHT22;14054;50.108;8.640;2023-08-06T09:20:38;17.90;99.90
26342;DHT22;14054;50.108;8.640;2023-08-06T09:23:07;17.60;99.90
26342;DHT22;14054;50.108;8.640;2023-08-06T09:25:33;17.30;99.90
26342;DHT22;14054;50.108;8.640;2023-08-06T09:28:02;17.10;99.90
26342;DHT22;14054;50.108;8.640;2023-08-06T09:30:35;17.00;99.90
26342;DHT22;14054;50.108;8.640;2023-08-06T09:33:01;17.10;99.90
26342;DHT22;14054;50.108;8.640;2023-08-06T09:35:31;17.20;99.90
26342;DHT22;14054;50.108;8.640;2023-08-06T09:38:07;17.20;99.90
26342;DHT22;14054;50.108;8.640;2023-08-06T09:40:33;17.30;99.90
26342;DHT22;14054;50.108;8.640;2023-08-06T09:42:59;17.20;99.90
26342;DHT22;14054;50.108;8.640;2023-08-06T09:45:30;17.50;99.90
26342;DHT22;14054;50.108;8.640;2023-08-06T09:47:57;18.10;99.90
26342;DHT22;14054;50.108;8.640;2023-08-06T09:50:28;18.30;99.90
26342;DHT22;14054;50.108;8.640;2023-08-06T09:52:56;18.50;99.90
26342;DHT22;14054;50.108;8.640;2023-08-06T09:55:21;18.60;99.90
26342;DHT22;14054;50.108;8.640;2023-08-06T09:57:47;18.40;99.90
26342;DHT22;14054;50.108;8.640;2023-08-06T10:00:13;18.10;99.90
26342;DHT22;14054;50.108;8.640;2023-08-06T10:02:40;17.60;99.90
26342;DHT22;14054;50.108;8.640;2023-08-06T10:05:07;17.30;99.90
26342;DHT22;14054;50.108;8.640;2023-08-06T10:07:33;17.40;99.90
26342;DHT22;14054;50.108;8.640;2023-08-06T10:09:59;17.80;99.90
26342;DHT22;14054;50.108;8.640;2023-08-06T10:12:28;18.10;99.90
26342;DHT22;14054;50.108;8.640;2023-08-06T10:14:56;18.60;99.90
26342;DHT22;14054;50.108;8.640;2023-08-06T10:17:23;18.90;99.90
26342;DHT22;14054;50.108;8.640;2023-08-06T10:19:50;19.00;99.90
26342;DHT22;14054;50.108;8.640;2023-08-06T10:22:17;19.20;99.90
26342;DHT22;14054;50.108;8.640;2023-08-06T10:24:49;19.20;99.90
26342;DHT22;14054;50.108;8.640;2023-08-06T10:27:22;19.20;99.90
26342;DHT22;14054;50.108;8.640;2023-08-06T10:29:48;19.30;99.90
26342;DHT22;14054;50.108;8.640;2023-08-06T10:32:16;19.90;99.90
26342;DHT22;14054;50.108;8.640;2023-08-06T10:34:57;20.10;99.90
26342;DHT22;14054;50.108;8.640;2023-08-06T10:37:23;20.10;99.90
26342;DHT22;14054;50.108;8.640;2023-08-06T10:39:51;19.80;99.90
26342;DHT22;14054;50.108;8.640;2023-08-06T10:42:27;19.80;99.90
26342;DHT22;14054;50.108;8.640;2023-08-06T10:45:12;19.80;99.90
26342;DHT22;14054;50.108;8.640;2023-08-06T10:47:41;19.80;99.90
26342;DHT22;14054;50.108;8.640;2023-08-06T10:50:10;19.60;99.90
26342;DHT22;14054;50.108;8.640;2023-08-06T10:52:36;19.50;99.90
26342;DHT22;14054;50.108;8.640;2023-08-06T10:55:02;19.80;99.90
26342;DHT22;14054;50.108;8.640;2023-08-06T10:57:27;19.80;99.90
26342;DHT22;14054;50.108;8.640;2023-08-06T10:59:53;19.80;99.90
26342;DHT22;14054;50.108;8.640;2023-08-06T11:02:18;19.60;99.90
26342;DHT22;14054;50.108;8.640;2023-08-06T11:04:44;19.70;99.90
26342;DHT22;14054;50.108;8.640;2023-08-06T11:07:10;19.80;99.90
26342;DHT22;14054;50.108;8.640;2023-08-06T11:09:35;19.80;99.90
26342;DHT22;14054;50.108;8.640;2023-08-06T11:12:01;19.90;99.90
26342;DHT22;14054;50.108;8.640;2023-08-06T11:14:26;19.90;99.90
26342;DHT22;14054;50.108;8.640;2023-08-06T11:16:52;19.90;99.90
26342;DHT22;14054;50.108;8.640;2023-08-06T11:19:17;20.10;99.90
26342;DHT22;14054;50.108;8.640;2023-08-06T11:21:43;20.20;99.90
26342;DHT22;14054;50.108;8.640;2023-08-06T11:24:12;20.10;99.90
26342;DHT22;14054;50.108;8.640;2023-08-06T11:26:38;19.90;99.90
26342;DHT22;14054;50.108;8.640;2023-08-06T11:29:05;19.70;99.90
26342;DHT22;14054;50.108;8.640;2023-08-06T11:31:31;19.60;99.90
26342;DHT22;14054;50.108;8.640;2023-08-06T11:33:56;19.50;99.90
26342;DHT22;14054;50.108;8.640;2023-08-06T11:36:29;19.40;99.90
26342;DHT22;14054;50.108;8.640;2023-08-06T11:38:56;19.40;99.90
26342;DHT22;14054;50.108;8.640;2023-08-06T11:41:22;19.20;99.90
26342;DHT22;14054;50.108;8.640;2023-08-06T11:43:47;19.30;99.90
26342;DHT22;14054;50.108;8.640;2023-08-06T11:46:13;19.20;99.90
26342;DHT22;14054;50.108;8.640;2023-08-06T11:48:58;19.00;99.90
26342;DHT22;14054;50.108;8.640;2023-08-06T11:51:25;18.80;99.90
26342;DHT22;14054;50.108;8.640;2023-08-06T11:53:59;18.40;99.90
26342;DHT22;14054;50.108;8.640;2023-08-06T11:56:25;17.90;99.90
26342;DHT22;14054;50.108;8.640;2023-08-06T11:58:52;17.30;99.90
26342;DHT22;14054;50.108;8.640;2023-08-06T12:01:18;16.60;99.90
26342;DHT22;14054;50.108;8.640;2023-08-06T12:03:43;16.30;99.90
26342;DHT22;14054;50.108;8.640;2023-08-06T12:06:09;16.10;99.90
26342;DHT22;14054;50.108;8.640;2023-08-06T12:08:35;16.00;99.90
26342;DHT22;14054;50.108;8.640;2023-08-06T12:11:00;16.00;99.90
26342;DHT22;14054;50.108;8.640;2023-08-06T12:13:26;16.10;99.90
26342;DHT22;14054;50.108;8.640;2023-08-06T12:15:51;16.20;99.90
26342;DHT22;14054;50.108;8.640;2023-08-06T12:18:19;16.30;99.90
26342;DHT22;14054;50.108;8.640;2023-08-06T12:20:44;16.40;99.90
26342;DHT22;14054;50.108;8.640;2023-08-06T12:23:10;16.60;99.90
26342;DHT22;14054;50.108;8.640;2023-08-06T12:25:35;16.60;99.90
26342;DHT22;14054;50.108;8.640;2023-08-06T12:28:01;16.60;99.90
26342;DHT22;14054;50.108;8.640;2023-08-06T12:30:26;16.80;99.90
26342;DHT22;14054;50.108;8.640;2023-08-06T12:32:52;17.00;99.90
26342;DHT22;14054;50.108;8.640;2023-08-06T12:35:17;17.00;99.90
26342;DHT22;14054;50.108;8.640;2023-08-06T12:37:43;17.10;99.90
26342;DHT22;14054;50.108;8.640;2023-08-06T12:40:09;17.00;99.90
26342;DHT22;14054;50.108;8.640;2023-08-06T12:42:35;17.10;99.90
26342;DHT22;14054;50.108;8.640;2023-08-06T12:45:01;17.20;99.90
26342;DHT22;14054;50.108;8.640;2023-08-06T12:47:26;17.30;99.90
26342;DHT22;14054;50.108;8.640;2023-08-06T12:49:52;17.30;99.90
26342;DHT22;14054;50.108;8.640;2023-08-06T12:52:17;17.30;99.90
26342;DHT22;14054;50.108;8.640;2023-08-06T12:54:45;17.20;99.90
26342;DHT22;14054;50.108;8.640;2023-08-06T12:57:11;17.10;99.90
26342;DHT22;14054;50.108;8.640;2023-08-06T12:59:36;17.00;99.90
26342;DHT22;14054;50.108;8.640;2023-08-06T13:02:02;17.00;99.90
26342;DHT22;14054;50.108;8.640;2023-08-06T13:04:29;17.00;99.90
26342;DHT22;14054;50.108;8.640;2023-08-06T13:06:54;17.00;99.90
26342;DHT22;14054;50.108;8.640;2023-08-06T13:09:20;17.00;99.90
26342;DHT22;14054;50.108;8.640;2023-08-06T13:11:46;16.90;99.90
26342;DHT22;14054;50.108;8.640;2023-08-06T13:14:15;16.90;99.90
26342;DHT22;14054;50.108;8.640;2023-08-06T13:16:42;16.90;99.90
26342;DHT22;14054;50.108;8.640;2023-08-06T13:19:08;16.90;99.90
26342;DHT22;14054;50.108;8.640;2023-08-06T13:24:17;16.90;99.90
26342;DHT22;14054;50.108;8.640;2023-08-06T13:26:43;16.90;99.90
26342;DHT22;14054;50.108;8.640;2023-08-06T13:29:09;16.90;99.90
26342;DHT22;14054;50.108;8.640;2023-08-06T13:31:35;16.90;99.90
26342;DHT22;14054;50.108;8.640;2023-08-06T13:34:00;16.70;99.90
26342;DHT22;14054;50.108;8.640;2023-08-06T13:36:27;16.60;99.90
26342;DHT22;14054;50.108;8.640;2023-08-06T13:38:52;16.60;99.90
26342;DHT22;14054;50.108;8.640;2023-08-06T13:41:18;16.60;99.90
26342;DHT22;14054;50.108;8.640;2023-08-06T13:43:44;16.60;99.90
26342;DHT22;14054;50.108;8.640;2023-08-06T13:46:10;16.50;99.90
26342;DHT22;14054;50.108;8.640;2023-08-06T13:48:40;16.50;99.90
26342;DHT22;14054;50.108;8.640;2023-08-06T13:51:05;16.50;99.90
26342;DHT22;14054;50.108;8.640;2023-08-06T13:53:31;16.60;99.90
26342;DHT22;14054;50.108;8.640;2023-08-06T13:55:57;16.50;99.90
26342;DHT22;14054;50.108;8.640;2023-08-06T13:58:23;16.50;99.90
26342;DHT22;14054;50.108;8.640;2023-08-06T14:00:49;16.60;99.90
26342;DHT22;14054;50.108;8.640;2023-08-06T14:03:15;16.60;99.90
26342;DHT22;14054;50.108;8.640;2023-08-06T14:05:41;16.60;99.90
26342;DHT22;14054;50.108;8.640;2023-08-06T14:08:07;16.60;99.90
26342;DHT22;14054;50.108;8.640;2023-08-06T14:10:32;16.60;99.90
26342;DHT22;14054;50.108;8.640;2023-08-06T14:12:58;16.50;99.90
26342;DHT22;14054;50.108;8.640;2023-08-06T14:15:23;16.50;99.90
26342;DHT22;14054;50.108;8.640;2023-08-06T14:17:48;16.50;99.90
26342;DHT22;14054;50.108;8.640;2023-08-06T14:20:14;16.60;99.90
26342;DHT22;14054;50.108;8.640;2023-08-06T14:22:40;16.60;99.90
26342;DHT22;14054;50.108;8.640;2023-08-06T14:25:06;16.60;99.90
26342;DHT22;14054;50.108;8.640;2023-08-06T14:27:32;16.60;99.90
26342;DHT22;14054;50.108;8.640;2023-08-06T14:29:57;16.70;99.90
26342;DHT22;14054;50.108;8.640;2023-08-06T14:32:23;16.70;99.90
26342;DHT22;14054;50.108;8.640;2023-08-06T14:34:48;16.80;99.90
26342;DHT22;14054;50.108;8.640;2023-08-06T14:37:14;16.70;99.90
26342;DHT22;14054;50.108;8.640;2023-08-06T14:39:40;16.70;99.90
26342;DHT22;14054;50.108;8.640;2023-08-06T14:42:05;16.70;99.90
26342;DHT22;14054;50.108;8.640;2023-08-06T14:44:31;16.70;99.90
26342;DHT22;14054;50.108;8.640;2023-08-06T14:46:56;16.80;99.90
26342;DHT22;14054;50.108;8.640;2023-08-06T14:49:22;16.80;99.90
26342;DHT22;14054;50.108;8.640;2023-08-06T14:51:48;16.90;99.90
26342;DHT22;14054;50.108;8.640;2023-08-06T14:54:13;16.90;99.90
26342;DHT22;14054;50.108;8.640;2023-08-06T14:56:39;17.00;99.90
26342;DHT22;14054;50.108;8.640;2023-08-06T14:59:04;17.00;99.90
26342;DHT22;14054;50.108;8.640;2023-08-06T15:01:30;17.00;99.90
26342;DHT22;14054;50.108;8.640;2023-08-06T15:03:55;16.90;99.90
26342;DHT22;14054;50.108;8.640;2023-08-06T15:06:21;16.90;99.90
26342;DHT22;14054;50.108;8.640;2023-08-06T15:08:46;16.80;99.90
26342;DHT22;14054;50.108;8.640;2023-08-06T15:11:13;16.70;99.90
26342;DHT22;14054;50.108;8.640;2023-08-06T15:13:40;16.70;99.90
26342;DHT22;14054;50.108;8.640;2023-08-06T15:16:05;16.60;99.90
26342;DHT22;14054;50.108;8.640;2023-08-06T15:18:31;16.60;99.90
26342;DHT22;14054;50.108;8.640;2023-08-06T15:20:56;16.50;99.90
26342;DHT22;14054;50.108;8.640;2023-08-06T15:23:23;16.60;99.90
26342;DHT22;14054;50.108;8.640;2023-08-06T15:25:48;16.60;99.90
26342;DHT22;14054;50.108;8.640;2023-08-06T15:28:16;16.70;99.90
26342;DHT22;14054;50.108;8.640;2023-08-06T15:30:49;16.70;99.90
26342;DHT22;14054;50.108;8.640;2023-08-06T15:33:14;16.80;99.90
26342;DHT22;14054;50.108;8.640;2023-08-06T15:35:40;16.90;99.90